Time;durP1;ratioP1;P1;durP2;ratioP2;P2;SDS_P1;SDS_P2;PMS_P1;PMS_P2;Temp;Humidity;BMP_temperature;BMP_pressure;BME280_temperature;BME280_humidity;BME280_pressure;Samples;Min_cycle;Max_cycle;Signal;HPM_P1;HPM_P2
2024/03/26 00:00:42;;;;;;;2.13;1.00;;;;;;;;;;5042720;28;20041;-75
2024/03/26 00:03:11;;;;;;;5.55;1.15;;;;;;;;;;5043215;28;20040;-74
2024/03/26 00:05:39;;;;;;;7.57;1.20;;;;;;;;;;5042164;28;20045;-75
2024/03/26 00:08:09;;;;;;;4.50;1.17;;;;;;;;;;5042349;28;20041;-74
2024/03/26 00:10:38;;;;;;;6.90;1.40;;;;;;;;;;5042568;28;20044;-75
2024/03/26 00:13:06;;;;;;;11.75;1.40;;;;;;;;;;5041944;28;20045;-75
2024/03/26 00:15:35;;;;;;;4.55;1.55;;;;;;;;;;5042193;28;20439;-75
2024/03/26 00:18:04;;;;;;;3.15;1.08;;;;;;;;;;5041842;28;20068;-74
2024/03/26 00:20:32;;;;;;;8.27;1.80;;;;;;;;;;5041636;28;20049;-76
2024/03/26 00:23:00;;;;;;;7.72;2.20;;;;;;;;;;5040668;28;20044;-75
2024/03/26 00:25:29;;;;;;;14.40;2.45;;;;;;;;;;5041557;28;20045;-74
2024/03/26 00:27:58;;;;;;;12.30;2.63;;;;;;;;;;5041906;28;20041;-73
2024/03/26 00:30:26;;;;;;;11.68;2.42;;;;;;;;;;5009466;28;20064;-73
2024/03/26 00:32:55;;;;;;;11.30;2.53;;;;;;;;;;5041979;28;20500;-72
2024/03/26 00:35:23;;;;;;;12.30;2.17;;;;;;;;;;5042699;28;20051;-75
2024/03/26 00:37:52;;;;;;;12.43;2.75;;;;;;;;;;5044813;28;20057;-75
2024/03/26 00:40:21;;;;;;;7.43;2.13;;;;;;;;;;5042027;28;20041;-75
2024/03/26 00:42:51;;;;;;;6.25;1.33;;;;;;;;;;5043470;28;20834;-76
2024/03/26 00:45:19;;;;;;;5.25;1.60;;;;;;;;;;5046299;28;20055;-76
2024/03/26 00:47:48;;;;;;;9.57;1.35;;;;;;;;;;5028971;28;20666;-74
2024/03/26 00:50:18;;;;;;;4.32;1.40;;;;;;;;;;5027754;28;20056;-75
2024/03/26 00:52:46;;;;;;;3.58;1.13;;;;;;;;;;5041402;28;21111;-75
2024/03/26 00:55:18;;;;;;;2.63;0.93;;;;;;;;;;5040813;28;20532;-73
2024/03/26 00:57:50;;;;;;;3.88;1.27;;;;;;;;;;5039944;28;20052;-74
2024/03/26 01:00:18;;;;;;;4.40;1.00;;;;;;;;;;5040327;28;20047;-77
2024/03/26 01:02:46;;;;;;;4.82;1.70;;;;;;;;;;5040788;28;20037;-74
2024/03/26 01:05:15;;;;;;;2.78;1.10;;;;;;;;;;5039787;28;20056;-75
2024/03/26 01:07:44;;;;;;;7.28;1.13;;;;;;;;;;5040975;28;20049;-74
2024/03/26 01:10:12;;;;;;;4.45;1.08;;;;;;;;;;5024765;28;20814;-74
2024/03/26 01:12:40;;;;;;;5.00;1.20;;;;;;;;;;5023772;28;20045;-75
2024/03/26 01:15:09;;;;;;;3.88;1.10;;;;;;;;;;5040840;28;20049;-75
2024/03/26 01:17:37;;;;;;;2.03;0.90;;;;;;;;;;5040901;28;20053;-74
2024/03/26 01:20:07;;;;;;;3.03;0.90;;;;;;;;;;5040808;28;20061;-76
2024/03/26 01:22:35;;;;;;;;;;;;;;;;;;5042903;28;20408;-75
2024/03/26 01:25:05;;;;;;;6.15;0.95;;;;;;;;;;5040815;28;19925;-76
2024/03/26 01:27:34;;;;;;;4.53;1.05;;;;;;;;;;5026125;28;20526;-76
2024/03/26 01:30:03;;;;;;;1.92;0.80;;;;;;;;;;5040437;28;20504;-77
2024/03/26 01:32:31;;;;;;;4.40;0.70;;;;;;;;;;5040532;28;20037;-75
2024/03/26 01:35:00;;;;;;;7.22;1.08;;;;;;;;;;5040719;28;20033;-74
2024/03/26 01:37:28;;;;;;;6.03;0.95;;;;;;;;;;5024058;28;20053;-74
2024/03/26 01:39:57;;;;;;;5.95;1.20;;;;;;;;;;5040937;28;20044;-73
2024/03/26 01:42:25;;;;;;;3.58;1.08;;;;;;;;;;5040691;28;20049;-76
2024/03/26 01:44:54;;;;;;;4.00;0.82;;;;;;;;;;5041307;28;20052;-74
2024/03/26 01:47:22;;;;;;;8.32;1.13;;;;;;;;;;5024359;28;20508;-75
2024/03/26 01:49:52;;;;;;;2.40;0.80;;;;;;;;;;5040065;28;20045;-73
2024/03/26 01:52:20;;;;;;;3.15;1.20;;;;;;;;;;5040498;28;20045;-75
2024/03/26 01:54:49;;;;;;;2.85;1.13;;;;;;;;;;5038556;28;20053;-76
2024/03/26 01:57:20;;;;;;;4.72;1.15;;;;;;;;;;5038358;28;20405;-74
2024/03/26 01:59:50;;;;;;;1.95;1.05;;;;;;;;;;5042596;28;20052;-75
2024/03/26 02:02:20;;;;;;;4.15;1.20;;;;;;;;;;5043522;28;20530;-76
2024/03/26 02:04:48;;;;;;;4.53;1.50;;;;;;;;;;5043842;28;20044;-74
2024/03/26 02:07:18;;;;;;;6.20;1.20;;;;;;;;;;5028493;28;20052;-76
2024/03/26 02:09:47;;;;;;;4.03;0.98;;;;;;;;;;5044244;28;20056;-74
2024/03/26 02:12:16;;;;;;;3.88;0.90;;;;;;;;;;5044578;28;20045;-76
2024/03/26 02:14:44;;;;;;;7.57;1.20;;;;;;;;;;5044485;28;20056;-73
2024/03/26 02:17:14;;;;;;;2.08;0.88;;;;;;;;;;5043591;28;20052;-73
2024/03/26 02:19:45;;;;;;;2.35;0.90;;;;;;;;;;5043564;28;20059;-75
2024/03/26 02:22:13;;;;;;;5.80;1.15;;;;;;;;;;5043342;28;20045;-76
2024/03/26 02:24:42;;;;;;;3.35;1.10;;;;;;;;;;5043755;28;20103;-75
2024/03/26 02:27:10;;;;;;;3.78;1.15;;;;;;;;;;5043702;28;20055;-75
2024/03/26 02:29:38;;;;;;;5.68;0.82;;;;;;;;;;5043862;28;20041;-74
2024/03/26 02:32:07;;;;;;;8.20;1.10;;;;;;;;;;5043220;28;20056;-76
2024/03/26 02:34:35;;;;;;;8.05;1.02;;;;;;;;;;5043361;28;20049;-77
2024/03/26 02:37:04;;;;;;;4.83;1.07;;;;;;;;;;5043566;28;20100;-74
2024/03/26 02:39:32;;;;;;;2.05;1.02;;;;;;;;;;5043726;28;20264;-74
2024/03/26 02:42:03;;;;;;;5.82;1.27;;;;;;;;;;5043386;28;20511;-76
2024/03/26 02:44:32;;;;;;;6.18;0.90;;;;;;;;;;5043194;28;20049;-75
2024/03/26 02:47:00;;;;;;;3.22;1.05;;;;;;;;;;5043173;28;20045;-75
2024/03/26 02:49:29;;;;;;;5.03;1.23;;;;;;;;;;5042903;28;20045;-76
2024/03/26 02:51:57;;;;;;;5.22;0.93;;;;;;;;;;5026120;28;20056;-74
2024/03/26 02:54:25;;;;;;;8.13;1.02;;;;;;;;;;5042198;28;20060;-74
2024/03/26 02:56:54;;;;;;;2.75;1.10;;;;;;;;;;5042053;28;20048;-75
2024/03/26 02:59:23;;;;;;;9.63;1.40;;;;;;;;;;5027234;28;20075;-75
2024/03/26 03:01:51;;;;;;;9.65;1.13;;;;;;;;;;5043432;28;20056;-75
2024/03/26 03:04:19;;;;;;;4.72;1.15;;;;;;;;;;5042293;28;20040;-74
2024/03/26 03:06:48;;;;;;;3.90;0.90;;;;;;;;;;5041526;28;20053;-74
2024/03/26 03:09:16;;;;;;;4.75;1.13;;;;;;;;;;5042118;28;20049;-74
2024/03/26 03:11:45;;;;;;;5.15;1.40;;;;;;;;;;5042320;28;20077;-74
2024/03/26 03:14:14;;;;;;;3.58;0.85;;;;;;;;;;5042177;28;20048;-73
2024/03/26 03:16:43;;;;;;;4.95;1.10;;;;;;;;;;5042243;28;20049;-75
2024/03/26 03:19:11;;;;;;;6.43;1.02;;;;;;;;;;5042580;28;20052;-74
2024/03/26 03:21:40;;;;;;;1.85;0.82;;;;;;;;;;5042377;28;20048;-74
2024/03/26 03:24:08;;;;;;;3.25;1.27;;;;;;;;;;5042386;28;20151;-74
2024/03/26 03:26:37;;;;;;;5.90;1.23;;;;;;;;;;5042242;28;20055;-73
2024/03/26 03:29:06;;;;;;;2.90;1.08;;;;;;;;;;5026307;28;20053;-75
2024/03/26 03:31:34;;;;;;;8.27;1.05;;;;;;;;;;5043475;28;20044;-75
2024/03/26 03:34:02;;;;;;;4.95;0.98;;;;;;;;;;5043111;28;21180;-73
2024/03/26 03:36:31;;;;;;;3.83;1.25;;;;;;;;;;5026209;28;20053;-74
2024/03/26 03:38:59;;;;;;;3.33;1.15;;;;;;;;;;5042416;28;20684;-74
2024/03/26 03:41:27;;;;;;;1.15;0.80;;;;;;;;;;5042183;28;20044;-73
2024/03/26 03:43:56;;;;;;;3.65;1.13;;;;;;;;;;5042783;28;20045;-73
2024/03/26 03:46:24;;;;;;;2.88;0.85;;;;;;;;;;5025759;28;20064;-73
2024/03/26 03:48:52;;;;;;;3.00;1.00;;;;;;;;;;5042145;28;20049;-74
2024/03/26 03:51:22;;;;;;;3.63;0.90;;;;;;;;;;5025543;28;20057;-74
2024/03/26 03:53:50;;;;;;;6.63;1.10;;;;;;;;;;5042286;28;20053;-73
2024/03/26 03:56:18;;;;;;;5.32;1.05;;;;;;;;;;5041929;28;20056;-74
2024/03/26 03:58:46;;;;;;;9.45;1.05;;;;;;;;;;5041869;28;20048;-74
2024/03/26 04:01:15;;;;;;;4.95;1.40;;;;;;;;;;5041883;28;20451;-76
2024/03/26 04:03:43;;;;;;;5.38;1.10;;;;;;;;;;5041834;28;20045;-75
2024/03/26 04:06:12;;;;;;;5.60;1.10;;;;;;;;;;5041699;28;20045;-72
2024/03/26 04:08:40;;;;;;;3.47;1.15;;;;;;;;;;5042103;28;20053;-76
2024/03/26 04:11:09;;;;;;;3.13;1.13;;;;;;;;;;5042061;28;20151;-76
2024/03/26 04:13:38;;;;;;;3.00;0.75;;;;;;;;;;5041827;28;20047;-75
2024/03/26 04:16:07;;;;;;;12.50;1.52;;;;;;;;;;5041259;28;20527;-73
2024/03/26 04:18:35;;;;;;;1.65;0.82;;;;;;;;;;5041600;28;20048;-75
2024/03/26 04:21:04;;;;;;;5.60;1.02;;;;;;;;;;5041250;28;20045;-74
2024/03/26 04:23:32;;;;;;;4.28;1.10;;;;;;;;;;5042425;28;20435;-73
2024/03/26 04:26:01;;;;;;;1.88;0.95;;;;;;;;;;5041702;28;20063;-75
2024/03/26 04:28:30;;;;;;;2.75;1.20;;;;;;;;;;5041344;28;20155;-75
2024/03/26 04:30:59;;;;;;;4.22;1.20;;;;;;;;;;5041673;28;20063;-74
2024/03/26 04:33:28;;;;;;;3.17;1.10;;;;;;;;;;5041624;28;20056;-75
2024/03/26 04:35:56;;;;;;;2.22;0.88;;;;;;;;;;5041313;28;20523;-76
2024/03/26 04:38:24;;;;;;;8.60;1.52;;;;;;;;;;5041223;28;20044;-73
2024/03/26 04:40:54;;;;;;;3.47;1.00;;;;;;;;;;5040729;28;20590;-75
2024/03/26 04:43:22;;;;;;;7.25;1.00;;;;;;;;;;5041388;28;20045;-74
2024/03/26 04:45:51;;;;;;;1.67;0.90;;;;;;;;;;5041341;28;20056;-74
2024/03/26 04:48:19;;;;;;;1.88;0.82;;;;;;;;;;5041170;28;20045;-73
2024/03/26 04:50:48;;;;;;;2.78;1.08;;;;;;;;;;5040961;28;20045;-73
2024/03/26 04:53:16;;;;;;;7.53;1.08;;;;;;;;;;5041030;28;20056;-73
2024/03/26 04:55:45;;;;;;;1.05;0.77;;;;;;;;;;5040784;28;20060;-75
2024/03/26 04:58:14;;;;;;;2.28;0.90;;;;;;;;;;5040959;28;20535;-75
2024/03/26 05:00:43;;;;;;;5.40;1.10;;;;;;;;;;5041153;28;20095;-74
2024/03/26 05:03:11;;;;;;;3.75;1.00;;;;;;;;;;5040848;28;20049;-72
2024/03/26 05:05:40;;;;;;;2.75;1.08;;;;;;;;;;5040626;28;20045;-73
2024/03/26 05:08:08;;;;;;;4.60;1.08;;;;;;;;;;5040779;28;20053;-72
2024/03/26 05:10:37;;;;;;;3.08;1.13;;;;;;;;;;5041485;28;20049;-72
2024/03/26 05:13:05;;;;;;;3.08;0.93;;;;;;;;;;5041373;28;20037;-75
2024/03/26 05:15:34;;;;;;;4.57;1.00;;;;;;;;;;5041754;28;20048;-73
2024/03/26 05:18:03;;;;;;;4.28;0.80;;;;;;;;;;5040715;28;20419;-74
2024/03/26 05:20:31;;;;;;;3.15;0.88;;;;;;;;;;5040261;28;20056;-75
2024/03/26 05:22:59;;;;;;;4.85;1.10;;;;;;;;;;5040664;28;20053;-73
2024/03/26 05:25:28;;;;;;;3.20;1.00;;;;;;;;;;5040443;28;20056;-74
2024/03/26 05:27:57;;;;;;;1.52;1.00;;;;;;;;;;5040656;28;20057;-74
2024/03/26 05:30:26;;;;;;;1.42;0.88;;;;;;;;;;5023714;28;20053;-74
2024/03/26 05:32:54;;;;;;;4.72;1.20;;;;;;;;;;5040881;28;20041;-74
2024/03/26 05:35:22;;;;;;;2.45;1.00;;;;;;;;;;5044881;28;20068;-73
2024/03/26 05:37:50;;;;;;;1.95;1.00;;;;;;;;;;5044299;28;20048;-74
2024/03/26 05:40:19;;;;;;;1.73;0.93;;;;;;;;;;5044472;28;20044;-76
2024/03/26 05:42:48;;;;;;;6.45;1.10;;;;;;;;;;5044766;28;20048;-75
2024/03/26 05:45:17;;;;;;;6.50;1.13;;;;;;;;;;5044764;28;20431;-72
2024/03/26 05:47:45;;;;;;;3.95;1.08;;;;;;;;;;5044188;28;20048;-74
2024/03/26 05:50:13;;;;;;;1.77;0.80;;;;;;;;;;5044452;28;20048;-74
2024/03/26 05:52:42;;;;;;;3.22;1.20;;;;;;;;;;5044697;28;20550;-75
2024/03/26 05:55:10;;;;;;;5.05;0.85;;;;;;;;;;5044389;28;20503;-73
2024/03/26 05:57:39;;;;;;;5.85;0.80;;;;;;;;;;5044867;28;20053;-74
2024/03/26 06:00:08;;;;;;;2.55;1.05;;;;;;;;;;5044648;28;20064;-72
2024/03/26 06:02:36;;;;;;;5.93;1.23;;;;;;;;;;5044379;28;20048;-73
2024/03/26 06:05:05;;;;;;;3.30;0.90;;;;;;;;;;5044519;28;20037;-75
2024/03/26 06:07:33;;;;;;;7.68;1.02;;;;;;;;;;5043963;28;20056;-73
2024/03/26 06:10:02;;;;;;;4.38;0.82;;;;;;;;;;5044408;28;20047;-73
2024/03/26 06:12:30;;;;;;;4.05;0.95;;;;;;;;;;5043473;28;20434;-75
2024/03/26 06:15:00;;;;;;;4.13;1.08;;;;;;;;;;5043792;28;20060;-75
2024/03/26 06:17:28;;;;;;;2.60;1.00;;;;;;;;;;5027588;28;20041;-74
2024/03/26 06:19:57;;;;;;;2.67;0.90;;;;;;;;;;5043706;28;20207;-74
2024/03/26 06:22:25;;;;;;;3.33;1.33;;;;;;;;;;5044336;28;20059;-73
2024/03/26 06:24:55;;;;;;;2.45;1.15;;;;;;;;;;5044329;28;20049;-74
2024/03/26 06:27:24;;;;;;;1.98;0.93;;;;;;;;;;5043512;28;20064;-74
2024/03/26 06:29:53;;;;;;;2.30;1.00;;;;;;;;;;5043943;28;20056;-74
2024/03/26 06:32:22;;;;;;;3.90;0.93;;;;;;;;;;5043859;28;20052;-74
2024/03/26 06:34:50;;;;;;;3.40;0.93;;;;;;;;;;5044086;28;20052;-76
2024/03/26 06:37:18;;;;;;;5.80;0.90;;;;;;;;;;5044111;28;20041;-72
2024/03/26 06:39:47;;;;;;;3.20;0.80;;;;;;;;;;5026846;28;20041;-74
2024/03/26 06:42:15;;;;;;;3.00;1.00;;;;;;;;;;5027652;28;20064;-76
2024/03/26 06:44:45;;;;;;;2.75;0.80;;;;;;;;;;5043334;28;20053;-75
2024/03/26 06:47:13;;;;;;;3.90;0.93;;;;;;;;;;5044177;28;20049;-77
2024/03/26 06:49:42;;;;;;;3.88;1.00;;;;;;;;;;5027041;28;20041;-75
2024/03/26 06:52:10;;;;;;;1.55;0.80;;;;;;;;;;5043027;28;20680;-75
2024/03/26 06:54:41;;;;;;;3.08;0.80;;;;;;;;;;5043710;28;20056;-75
2024/03/26 06:57:10;;;;;;;1.73;0.82;;;;;;;;;;5043505;28;20052;-75
2024/03/26 06:59:38;;;;;;;5.50;0.85;;;;;;;;;;5043454;28;20044;-74
2024/03/26 07:02:08;;;;;;;1.25;0.80;;;;;;;;;;5042897;28;20207;-75
2024/03/26 07:04:36;;;;;;;;;;;;;;;;;;5043509;28;20048;-74
2024/03/26 07:07:04;;;;;;;;;;;;;;;;;;5027395;28;19932;-75
2024/03/26 07:09:38;;;;;;;1.05;0.90;;;;;;;;;;5043029;28;19924;-72
2024/03/26 07:12:07;;;;;;;2.92;1.05;;;;;;;;;;5026767;28;20045;-74
2024/03/26 07:14:35;;;;;;;3.00;0.98;;;;;;;;;;5042870;28;20504;-74
2024/03/26 07:17:05;;;;;;;1.85;0.85;;;;;;;;;;5025882;28;20423;-73
2024/03/26 07:19:34;;;;;;;2.72;0.80;;;;;;;;;;5042541;28;20416;-75
2024/03/26 07:22:04;;;;;;;2.80;1.00;;;;;;;;;;5042881;28;20492;-76
2024/03/26 07:24:32;;;;;;;2.13;1.05;;;;;;;;;;5043442;28;20599;-74
2024/03/26 07:27:00;;;;;;;5.45;1.08;;;;;;;;;;5043638;28;20060;-74
2024/03/26 07:29:28;;;;;;;4.68;1.80;;;;;;;;;;5043141;28;20443;-76
2024/03/26 07:31:58;;;;;;;2.10;0.80;;;;;;;;;;5026733;28;20060;-74
2024/03/26 07:34:26;;;;;;;3.83;0.98;;;;;;;;;;5041976;28;20041;-75
2024/03/26 07:36:54;;;;;;;4.05;0.90;;;;;;;;;;5042459;28;20044;-75
2024/03/26 07:39:23;;;;;;;2.95;1.00;;;;;;;;;;5042292;28;20049;-73
2024/03/26 07:41:52;;;;;;;5.47;0.88;;;;;;;;;;5042113;28;20432;-76
2024/03/26 07:44:20;;;;;;;1.73;0.93;;;;;;;;;;5041907;28;20037;-74
2024/03/26 07:46:48;;;;;;;3.13;1.02;;;;;;;;;;5025900;28;20056;-73
2024/03/26 07:49:17;;;;;;;4.88;0.93;;;;;;;;;;5042112;28;20048;-73
2024/03/26 07:51:48;;;;;;;1.27;0.70;;;;;;;;;;5025628;28;20052;-74
2024/03/26 07:54:16;;;;;;;1.20;0.73;;;;;;;;;;5042347;28;20068;-75
2024/03/26 07:56:44;;;;;;;1.52;0.63;;;;;;;;;;5041237;28;20044;-73
2024/03/26 07:59:12;;;;;;;4.70;1.00;;;;;;;;;;5042075;28;20040;-74
2024/03/26 08:01:41;;;;;;;0.90;0.75;;;;;;;;;;5042105;28;20053;-74
2024/03/26 08:04:10;;;;;;;1.30;0.57;;;;;;;;;;5041713;28;20040;-74
2024/03/26 08:06:38;;;;;;;;;;;;;;;;;;5042407;28;20036;-74
2024/03/26 08:09:07;;;;;;;2.88;0.60;;;;;;;;;;5041702;28;19924;-72
2024/03/26 08:11:35;;;;;;;2.00;0.90;;;;;;;;;;5042374;28;20044;-73
2024/03/26 08:14:04;;;;;;;1.67;0.90;;;;;;;;;;5041899;28;20053;-73
2024/03/26 08:16:33;;;;;;;1.15;0.80;;;;;;;;;;5042069;28;20033;-73
2024/03/26 08:19:03;;;;;;;3.38;1.27;;;;;;;;;;5041788;28;20430;-73
2024/03/26 08:21:32;;;;;;;1.02;0.80;;;;;;;;;;5041750;28;20052;-74
2024/03/26 08:24:00;;;;;;;1.25;1.00;;;;;;;;;;5041745;28;20048;-76
2024/03/26 08:26:28;;;;;;;2.00;0.77;;;;;;;;;;5025473;28;20049;-73
2024/03/26 08:28:57;;;;;;;2.10;1.00;;;;;;;;;;5024926;28;20052;-74
2024/03/26 08:31:26;;;;;;;4.20;0.90;;;;;;;;;;5041594;28;20057;-75
2024/03/26 08:33:55;;;;;;;2.38;0.82;;;;;;;;;;5041392;28;20053;-72
2024/03/26 08:36:24;;;;;;;;;;;;;;;;;;5041682;28;20037;-73
2024/03/26 08:38:53;;;;;;;;;;;;;;;;;;5041729;28;19925;-73
2024/03/26 08:41:21;;;;;;;1.88;0.75;;;;;;;;;;5041454;28;19929;-75
2024/03/26 08:43:49;;;;;;;1.73;0.73;;;;;;;;;;5041131;28;20047;-73
2024/03/26 08:46:19;;;;;;;5.90;0.85;;;;;;;;;;5041648;28;20049;-73
2024/03/26 08:48:47;;;;;;;;;;;;;;;;;;5042337;28;20049;-74
2024/03/26 08:51:15;;;;;;;2.05;0.85;;;;;;;;;;5042029;28;19935;-74
2024/03/26 08:53:44;;;;;;;3.10;0.80;;;;;;;;;;5041448;28;20051;-75
2024/03/26 08:56:15;;;;;;;1.63;0.88;;;;;;;;;;5041052;28;20102;-75
2024/03/26 08:58:44;;;;;;;1.75;0.85;;;;;;;;;;5040808;28;20044;-72
2024/03/26 09:01:12;;;;;;;1.15;0.73;;;;;;;;;;5040827;28;20053;-75
2024/03/26 09:03:41;;;;;;;2.65;0.65;;;;;;;;;;5040254;28;20048;-77
2024/03/26 09:06:10;;;;;;;5.38;1.13;;;;;;;;;;5041059;28;20057;-73
2024/03/26 09:08:38;;;;;;;6.22;1.10;;;;;;;;;;5024091;28;20055;-74
2024/03/26 09:11:06;;;;;;;2.45;0.90;;;;;;;;;;5041048;28;20041;-76
2024/03/26 09:13:39;;;;;;;3.22;1.35;;;;;;;;;;5040967;28;20041;-73
2024/03/26 09:16:10;;;;;;;5.32;1.35;;;;;;;;;;5040773;28;20055;-74
2024/03/26 09:18:39;;;;;;;7.03;1.50;;;;;;;;;;5041141;28;20036;-75
2024/03/26 09:21:07;;;;;;;7.75;1.23;;;;;;;;;;5024530;28;20052;-73
2024/03/26 09:23:37;;;;;;;15.07;1.98;;;;;;;;;;5040639;28;20037;-73
2024/03/26 09:26:05;;;;;;;7.25;1.23;;;;;;;;;;5040816;28;20076;-73
2024/03/26 09:28:33;;;;;;;13.30;1.45;;;;;;;;;;5040337;28;20048;-75
2024/03/26 09:31:02;;;;;;;5.10;0.90;;;;;;;;;;5041151;28;20041;-75
2024/03/26 09:33:30;;;;;;;1.05;0.73;;;;;;;;;;5040450;28;20041;-74
2024/03/26 09:35:58;;;;;;;5.03;1.13;;;;;;;;;;5040521;28;20431;-72
2024/03/26 09:38:27;;;;;;;11.98;1.60;;;;;;;;;;5041233;28;20049;-75
2024/03/26 09:41:01;;;;;;;18.65;1.85;;;;;;;;;;5039760;28;20040;-76
2024/03/26 09:43:32;;;;;;;29.17;1.67;;;;;;;;;;5040578;28;20108;-74
2024/03/26 09:46:00;;;;;;;10.32;1.52;;;;;;;;;;5040034;28;20496;-79
2024/03/26 09:48:29;;;;;;;32.08;2.40;;;;;;;;;;5040828;28;20528;-74
2024/03/26 09:50:59;;;;;;;5.30;1.30;;;;;;;;;;5040498;28;20044;-73
2024/03/26 09:53:28;;;;;;;32.22;2.08;;;;;;;;;;5040070;28;20041;-75
2024/03/26 09:55:56;;;;;;;23.15;1.90;;;;;;;;;;5040383;28;20053;-75
2024/03/26 09:58:25;;;;;;;13.55;2.13;;;;;;;;;;5040000;28;20045;-75
2024/03/26 10:00:53;;;;;;;9.85;2.20;;;;;;;;;;5039979;28;20060;-75
2024/03/26 10:03:26;;;;;;;12.60;1.73;;;;;;;;;;5040705;28;20045;-76
2024/03/26 10:05:55;;;;;;;20.73;1.77;;;;;;;;;;5039854;28;20519;-75
2024/03/26 10:08:23;;;;;;;12.85;1.30;;;;;;;;;;5041275;28;20044;-74
2024/03/26 10:10:54;;;;;;;17.58;2.38;;;;;;;;;;5041124;28;20057;-75
2024/03/26 10:13:23;;;;;;;30.95;2.42;;;;;;;;;;5040439;28;20056;-82
2024/03/26 10:15:53;;;;;;;20.42;1.80;;;;;;;;;;5039961;28;20412;-74
2024/03/26 10:18:21;;;;;;;8.23;2.00;;;;;;;;;;5039913;28;20045;-74
2024/03/26 10:20:53;;;;;;;5.55;2.35;;;;;;;;;;5043315;28;20045;-75
2024/03/26 10:23:21;;;;;;;10.93;1.80;;;;;;;;;;5044246;28;20041;-75
2024/03/26 10:25:50;;;;;;;12.95;1.92;;;;;;;;;;5044265;28;20051;-74
2024/03/26 10:28:24;;;;;;;16.77;1.63;;;;;;;;;;5043363;28;20041;-73
2024/03/26 10:30:53;;;;;;;12.38;1.40;;;;;;;;;;5043409;28;20044;-80
2024/03/26 10:33:23;;;;;;;18.55;2.67;;;;;;;;;;5035428;28;20049;-73
2024/03/26 10:35:56;;;;;;;7.93;4.10;;;;;;;;;;5025162;28;20516;-75
2024/03/26 10:38:26;;;;;;;2.90;1.65;;;;;;;;;;5024673;28;20045;-74
2024/03/26 10:41:06;;;;;;;3.88;1.40;;;;;;;;;;5024363;28;20053;-73
2024/03/26 10:43:36;;;;;;;6.72;1.50;;;;;;;;;;5008948;28;20042;-74
2024/03/26 10:46:05;;;;;;;;;;;;;;;;;;5025041;28;20049;-76
2024/03/26 10:48:35;;;;;;;4.85;1.38;;;;;;;;;;5025103;28;19925;-75
2024/03/26 10:51:05;;;;;;;2.45;1.10;;;;;;;;;;5024995;28;20052;-74
2024/03/26 10:53:35;;;;;;;4.55;1.25;;;;;;;;;;5024016;28;20050;-76
2024/03/26 10:56:05;;;;;;;5.18;1.42;;;;;;;;;;5023705;28;20053;-76
2024/03/26 10:58:37;;;;;;;6.07;1.42;;;;;;;;;;5023850;28;20037;-75
2024/03/26 11:01:08;;;;;;;9.07;2.33;;;;;;;;;;5024055;28;20057;-75
2024/03/26 11:03:36;;;;;;;7.47;2.20;;;;;;;;;;5023494;28;20046;-75
2024/03/26 11:06:07;;;;;;;1.60;1.02;;;;;;;;;;5023062;28;20531;-77
2024/03/26 11:08:41;;;;;;;3.50;1.45;;;;;;;;;;5007244;28;20045;-82
2024/03/26 11:11:15;;;;;;;1.20;1.10;;;;;;;;;;5023636;28;20061;-76
2024/03/26 11:13:47;;;;;;;5.43;1.60;;;;;;;;;;5022897;28;20046;-74
2024/03/26 11:16:38;;;;;;;4.72;1.83;;;;;;;;;;5023030;28;20527;-74
2024/03/26 11:19:21;;;;;;;2.60;1.48;;;;;;;;;;5022563;28;20049;-76
2024/03/26 11:21:53;;;;;;;3.65;1.25;;;;;;;;;;5006520;28;20061;-76
2024/03/26 11:24:31;;;;;;;1.60;0.98;;;;;;;;;;5022350;28;20072;-75
2024/03/26 11:27:02;;;;;;;4.72;1.50;;;;;;;;;;5023351;28;20057;-73
2024/03/26 11:29:32;;;;;;;3.85;1.17;;;;;;;;;;4991207;28;20057;-74
2024/03/26 11:32:02;;;;;;;8.05;1.55;;;;;;;;;;5021799;28;20049;-76
2024/03/26 11:34:31;;;;;;;;;;;;;;;;;;5006997;28;20053;-77
2024/03/26 11:37:00;;;;;;;3.20;1.38;;;;;;;;;;5006944;28;19932;-74
2024/03/26 11:39:29;;;;;;;3.72;1.70;;;;;;;;;;5006146;28;20057;-73
2024/03/26 11:41:59;;;;;;;7.47;1.63;;;;;;;;;;5023052;28;20034;-75
2024/03/26 11:44:28;;;;;;;5.32;1.40;;;;;;;;;;5022723;28;20523;-74
2024/03/26 11:46:57;;;;;;;;;;;;;;;;;;5022896;28;20037;-74
2024/03/26 11:49:25;;;;;;;3.60;1.20;;;;;;;;;;5022105;28;19925;-76
2024/03/26 11:51:53;;;;;;;3.20;1.30;;;;;;;;;;5022779;28;20076;-75
2024/03/26 11:54:23;;;;;;;6.88;1.20;;;;;;;;;;5021530;28;20064;-76
2024/03/26 11:56:52;;;;;;;8.05;1.50;;;;;;;;;;5022185;28;20068;-74
2024/03/26 11:59:24;;;;;;;5.45;1.20;;;;;;;;;;5022108;28;20428;-74
2024/03/26 12:01:53;;;;;;;2.45;1.20;;;;;;;;;;5022432;28;20046;-73
2024/03/26 12:04:25;;;;;;;3.85;0.90;;;;;;;;;;4990151;28;20071;-73
2024/03/26 12:06:55;;;;;;;2.17;0.90;;;;;;;;;;5022132;28;20042;-74
2024/03/26 12:09:23;;;;;;;6.55;1.20;;;;;;;;;;5022340;28;20063;-75
2024/03/26 12:11:52;;;;;;;2.47;0.80;;;;;;;;;;5006789;28;20436;-77
2024/03/26 12:14:21;;;;;;;3.83;1.08;;;;;;;;;;5022305;28;20041;-73
2024/03/26 12:16:53;;;;;;;7.35;1.90;;;;;;;;;;5006740;28;20049;-73
2024/03/26 12:19:22;;;;;;;2.72;0.82;;;;;;;;;;5006687;28;20050;-72
2024/03/26 12:21:50;;;;;;;;;;;;;;;;;;5023324;28;20500;-73
2024/03/26 12:24:18;;;;;;;3.38;0.82;;;;;;;;;;5010008;28;19925;-75
2024/03/26 12:26:47;;;;;;;4.13;0.70;;;;;;;;;;5023061;28;20049;-70
2024/03/26 12:29:15;;;;;;;4.35;1.00;;;;;;;;;;5023141;28;20045;-74
2024/03/26 12:31:45;;;;;;;2.92;0.88;;;;;;;;;;5023006;28;20045;-75
2024/03/26 12:34:14;;;;;;;1.00;0.52;;;;;;;;;;5022771;28;20052;-74
2024/03/26 12:36:44;;;;;;;5.50;1.00;;;;;;;;;;5025217;28;20049;-75
2024/03/26 12:39:14;;;;;;;5.35;1.50;;;;;;;;;;5023050;28;20037;-75
2024/03/26 12:41:43;;;;;;;8.73;0.98;;;;;;;;;;5021607;28;20621;-74
2024/03/26 12:44:15;;;;;;;6.03;0.93;;;;;;;;;;5021322;28;20508;-73
2024/03/26 12:46:43;;;;;;;3.53;0.68;;;;;;;;;;5021498;28;20037;-73
2024/03/26 12:49:13;;;;;;;1.45;0.57;;;;;;;;;;5021613;28;20053;-73
2024/03/26 12:51:41;;;;;;;4.22;0.60;;;;;;;;;;5021638;28;20045;-72
2024/03/26 12:54:09;;;;;;;1.80;0.93;;;;;;;;;;5020990;28;20085;-72
2024/03/26 12:56:40;;;;;;;3.15;0.65;;;;;;;;;;5005561;28;20947;-77
2024/03/26 12:59:08;;;;;;;3.03;0.85;;;;;;;;;;5021874;28;20060;-73
2024/03/26 13:01:37;;;;;;;3.40;0.80;;;;;;;;;;5021157;28;20053;-74
2024/03/26 13:04:05;;;;;;;1.73;0.70;;;;;;;;;;5021359;28;20045;-75
2024/03/26 13:06:33;;;;;;;5.93;1.40;;;;;;;;;;5021702;28;20543;-75
2024/03/26 13:09:02;;;;;;;7.50;1.02;;;;;;;;;;5005376;28;20045;-74
2024/03/26 13:11:31;;;;;;;5.28;0.90;;;;;;;;;;5021551;28;20064;-74
2024/03/26 13:13:59;;;;;;;4.72;0.93;;;;;;;;;;5005554;28;20060;-74
2024/03/26 13:16:30;;;;;;;6.78;1.80;;;;;;;;;;5021116;28;20041;-73
2024/03/26 13:18:59;;;;;;;3.00;0.70;;;;;;;;;;5005031;28;20049;-74
2024/03/26 13:21:30;;;;;;;2.97;0.70;;;;;;;;;;5004706;28;20534;-75
2024/03/26 13:23:58;;;;;;;7.22;0.90;;;;;;;;;;5020565;28;20052;-74
2024/03/26 13:26:30;;;;;;;2.60;0.70;;;;;;;;;;5020575;28;20041;-74
2024/03/26 13:28:59;;;;;;;2.70;0.80;;;;;;;;;;5020738;28;20339;-73
2024/03/26 13:31:28;;;;;;;2.83;0.52;;;;;;;;;;5021417;28;20041;-74
2024/03/26 13:33:57;;;;;;;3.28;0.55;;;;;;;;;;5021356;28;20072;-74
2024/03/26 13:36:25;;;;;;;0.73;0.50;;;;;;;;;;5020428;28;20056;-72
2024/03/26 13:38:56;;;;;;;3.05;1.58;;;;;;;;;;5021129;28;20037;-73
2024/03/26 13:41:24;;;;;;;3.47;1.67;;;;;;;;;;5021535;28;20045;-75
2024/03/26 13:43:53;;;;;;;5.50;0.80;;;;;;;;;;5021125;28;20500;-75
2024/03/26 13:46:22;;;;;;;3.17;0.85;;;;;;;;;;5021212;28;20554;-75
2024/03/26 13:48:50;;;;;;;2.85;0.85;;;;;;;;;;5021553;28;20053;-75
2024/03/26 13:51:18;;;;;;;;;;;;;;;;;;5021455;28;20416;-75
2024/03/26 13:53:46;;;;;;;2.17;0.65;;;;;;;;;;5021351;28;19925;-75
2024/03/26 13:56:15;;;;;;;4.13;0.82;;;;;;;;;;5025110;28;20041;-76
2024/03/26 13:58:44;;;;;;;2.92;0.70;;;;;;;;;;5009514;28;20056;-78
2024/03/26 14:01:12;;;;;;;1.83;0.60;;;;;;;;;;5025584;28;20056;-77
2024/03/26 14:03:41;;;;;;;4.63;0.80;;;;;;;;;;5024948;28;20052;-75
2024/03/26 14:06:10;;;;;;;7.63;0.98;;;;;;;;;;5008989;28;20049;-75
2024/03/26 14:08:38;;;;;;;3.25;0.82;;;;;;;;;;5025312;28;20041;-74
2024/03/26 14:11:08;;;;;;;4.40;0.70;;;;;;;;;;5024656;28;20049;-75
2024/03/26 14:13:36;;;;;;;2.53;0.77;;;;;;;;;;5024078;28;20432;-74
2024/03/26 14:16:06;;;;;;;3.95;0.88;;;;;;;;;;5023659;28;20045;-74
2024/03/26 14:18:35;;;;;;;0.98;0.60;;;;;;;;;;5025451;28;20052;-74
2024/03/26 14:21:04;;;;;;;3.83;0.70;;;;;;;;;;5008082;28;20056;-74
2024/03/26 14:23:32;;;;;;;4.22;0.70;;;;;;;;;;5024111;28;20056;-74
2024/03/26 14:26:01;;;;;;;3.03;0.70;;;;;;;;;;5025086;28;20420;-77
2024/03/26 14:28:29;;;;;;;2.50;0.93;;;;;;;;;;5023879;28;20033;-75
2024/03/26 14:30:58;;;;;;;1.67;0.93;;;;;;;;;;5024199;28;20500;-76
2024/03/26 14:33:26;;;;;;;1.60;0.60;;;;;;;;;;5008753;28;20404;-74
2024/03/26 14:35:57;;;;;;;6.82;1.08;;;;;;;;;;5024928;28;20042;-76
2024/03/26 14:38:25;;;;;;;5.50;0.90;;;;;;;;;;5024024;28;20052;-75
2024/03/26 14:40:53;;;;;;;2.15;0.82;;;;;;;;;;5023349;28;20060;-75
2024/03/26 14:43:21;;;;;;;3.17;1.20;;;;;;;;;;5023602;28;20049;-73
2024/03/26 14:45:50;;;;;;;3.47;0.95;;;;;;;;;;5023334;28;20045;-75
2024/03/26 14:48:19;;;;;;;3.60;0.90;;;;;;;;;;5023907;28;20046;-75
2024/03/26 14:50:51;;;;;;;8.20;1.20;;;;;;;;;;5024522;28;20041;-73
2024/03/26 14:53:21;;;;;;;4.38;0.90;;;;;;;;;;5023460;28;21125;-73
2024/03/26 14:55:49;;;;;;;3.47;1.17;;;;;;;;;;5006230;28;20058;-74